sensor_id;sensor_type;location;lat;lon;timestamp;temperature;humidity
6879;DHT22;3478;51.462;7.338;2023-08-12T00:00:20;21.50;99.90
6879;DHT22;3478;51.462;7.338;2023-08-12T00:05:24;21.50;99.90
6879;DHT22;3478;51.462;7.338;2023-08-12T00:10:26;21.50;99.90
6879;DHT22;3478;51.462;7.338;2023-08-12T00:15:28;21.50;99.90
6879;DHT22;3478;51.462;7.338;2023-08-12T00:20:31;21.50;99.90
6879;DHT22;3478;51.462;7.338;2023-08-12T00:25:33;21.50;99.90
6879;DHT22;3478;51.462;7.338;2023-08-12T00:30:34;21.50;99.90
6879;DHT22;3478;51.462;7.338;2023-08-12T00:35:38;21.50;99.90
6879;DHT22;3478;51.462;7.338;2023-08-12T00:40:39;21.40;99.90
6879;DHT22;3478;51.462;7.338;2023-08-12T00:45:41;21.40;99.90
6879;DHT22;3478;51.462;7.338;2023-08-12T00:50:45;21.30;99.90
6879;DHT22;3478;51.462;7.338;2023-08-12T00:55:47;21.30;99.90
6879;DHT22;3478;51.462;7.338;2023-08-12T01:00:49;21.20;99.90
6879;DHT22;3478;51.462;7.338;2023-08-12T01:05:53;21.20;99.90
6879;DHT22;3478;51.462;7.338;2023-08-12T01:11:00;21.20;99.90
6879;DHT22;3478;51.462;7.338;2023-08-12T01:16:05;21.20;99.90
6879;DHT22;3478;51.462;7.338;2023-08-12T01:21:16;21.10;99.90
6879;DHT22;3478;51.462;7.338;2023-08-12T01:26:19;21.10;99.90
6879;DHT22;3478;51.462;7.338;2023-08-12T01:31:26;21.00;99.90
6879;DHT22;3478;51.462;7.338;2023-08-12T01:36:34;21.00;99.90
6879;DHT22;3478;51.462;7.338;2023-08-12T01:41:39;20.90;99.90
6879;DHT22;3478;51.462;7.338;2023-08-12T01:46:44;20.80;99.90
6879;DHT22;3478;51.462;7.338;2023-08-12T01:51:45;20.80;99.90
6879;DHT22;3478;51.462;7.338;2023-08-12T01:56:49;20.80;99.90
6879;DHT22;3478;51.462;7.338;2023-08-12T02:01:50;20.80;99.90
6879;DHT22;3478;51.462;7.338;2023-08-12T02:06:52;20.90;99.90
6879;DHT22;3478;51.462;7.338;2023-08-12T02:11:56;20.80;99.90
6879;DHT22;3478;51.462;7.338;2023-08-12T02:16:58;20.90;99.90
6879;DHT22;3478;51.462;7.338;2023-08-12T02:22:00;20.90;99.90
6879;DHT22;3478;51.462;7.338;2023-08-12T02:27:05;20.90;99.90
6879;DHT22;3478;51.462;7.338;2023-08-12T02:32:07;20.80;99.90
6879;DHT22;3478;51.462;7.338;2023-08-12T02:37:09;20.80;99.90
6879;DHT22;3478;51.462;7.338;2023-08-12T02:42:14;20.70;99.90
6879;DHT22;3478;51.462;7.338;2023-08-12T02:47:16;20.80;99.90
6879;DHT22;3478;51.462;7.338;2023-08-12T02:52:18;20.70;99.90
6879;DHT22;3478;51.462;7.338;2023-08-12T02:57:21;20.70;99.90
6879;DHT22;3478;51.462;7.338;2023-08-12T03:02:23;20.70;99.90
6879;DHT22;3478;51.462;7.338;2023-08-12T03:07:24;20.70;99.90
6879;DHT22;3478;51.462;7.338;2023-08-12T03:12:28;20.70;99.90
6879;DHT22;3478;51.462;7.338;2023-08-12T03:17:30;20.70;99.90
6879;DHT22;3478;51.462;7.338;2023-08-12T03:22:32;20.70;99.90
6879;DHT22;3478;51.462;7.338;2023-08-12T03:27:35;20.70;99.90
6879;DHT22;3478;51.462;7.338;2023-08-12T03:32:37;20.70;99.90
6879;DHT22;3478;51.462;7.338;2023-08-12T03:37:39;20.70;99.90
6879;DHT22;3478;51.462;7.338;2023-08-12T03:42:42;20.70;99.90
6879;DHT22;3478;51.462;7.338;2023-08-12T03:47:44;20.70;99.90
6879;DHT22;3478;51.462;7.338;2023-08-12T03:52:45;20.70;99.90
6879;DHT22;3478;51.462;7.338;2023-08-12T03:57:49;20.70;99.90
6879;DHT22;3478;51.462;7.338;2023-08-12T04:02:51;20.70;99.90
6879;DHT22;3478;51.462;7.338;2023-08-12T04:07:53;20.60;99.90
6879;DHT22;3478;51.462;7.338;2023-08-12T04:12:56;20.70;99.90
6879;DHT22;3478;51.462;7.338;2023-08-12T04:17:58;20.70;99.90
6879;DHT22;3478;51.462;7.338;2023-08-12T04:23:00;20.70;99.90
6879;DHT22;3478;51.462;7.338;2023-08-12T04:28:04;20.70;99.90
6879;DHT22;3478;51.462;7.338;2023-08-12T04:33:06;20.70;99.90
6879;DHT22;3478;51.462;7.338;2023-08-12T04:38:08;20.70;99.90
6879;DHT22;3478;51.462;7.338;2023-08-12T04:43:11;20.70;99.90
6879;DHT22;3478;51.462;7.338;2023-08-12T04:48:14;20.70;99.90
6879;DHT22;3478;51.462;7.338;2023-08-12T04:53:16;20.60;99.90
6879;DHT22;3478;51.462;7.338;2023-08-12T04:58:19;20.70;99.90
6879;DHT22;3478;51.462;7.338;2023-08-12T05:03:20;20.70;99.90
6879;DHT22;3478;51.462;7.338;2023-08-12T05:08:22;20.70;99.90
6879;DHT22;3478;51.462;7.338;2023-08-12T05:13:25;20.70;99.90
6879;DHT22;3478;51.462;7.338;2023-08-12T05:18:28;20.70;99.90
6879;DHT22;3478;51.462;7.338;2023-08-12T05:23:30;20.80;99.90
6879;DHT22;3478;51.462;7.338;2023-08-12T05:28:33;20.80;99.90
6879;DHT22;3478;51.462;7.338;2023-08-12T05:33:35;20.90;99.90
6879;DHT22;3478;51.462;7.338;2023-08-12T05:38:37;21.00;99.90
6879;DHT22;3478;51.462;7.338;2023-08-12T05:43:40;21.00;99.90
6879;DHT22;3478;51.462;7.338;2023-08-12T05:48:42;21.00;99.90
6879;DHT22;3478;51.462;7.338;2023-08-12T05:53:44;21.10;99.90
6879;DHT22;3478;51.462;7.338;2023-08-12T05:58:47;21.00;99.90
6879;DHT22;3478;51.462;7.338;2023-08-12T06:03:49;21.00;99.90
6879;DHT22;3478;51.462;7.338;2023-08-12T06:08:50;21.00;99.90
6879;DHT22;3478;51.462;7.338;2023-08-12T06:13:54;20.80;99.90
6879;DHT22;3478;51.462;7.338;2023-08-12T06:18:55;20.80;99.90
6879;DHT22;3478;51.462;7.338;2023-08-12T06:23:57;20.90;99.90
6879;DHT22;3478;51.462;7.338;2023-08-12T06:29:00;20.90;99.90
6879;DHT22;3478;51.462;7.338;2023-08-12T06:34:02;21.00;99.90
6879;DHT22;3478;51.462;7.338;2023-08-12T06:39:04;20.90;99.90
6879;DHT22;3478;51.462;7.338;2023-08-12T06:44:08;20.80;99.90
6879;DHT22;3478;51.462;7.338;2023-08-12T06:49:09;20.80;99.90
6879;DHT22;3478;51.462;7.338;2023-08-12T06:54:11;20.80;99.90
6879;DHT22;3478;51.462;7.338;2023-08-12T06:59:14;20.70;99.90
6879;DHT22;3478;51.462;7.338;2023-08-12T07:04:16;20.70;99.90
6879;DHT22;3478;51.462;7.338;2023-08-12T07:09:18;20.70;99.90
6879;DHT22;3478;51.462;7.338;2023-08-12T07:14:21;20.60;99.90
6879;DHT22;3478;51.462;7.338;2023-08-12T07:19:23;20.60;99.90
6879;DHT22;3478;51.462;7.338;2023-08-12T07:24:25;20.60;99.90
6879;DHT22;3478;51.462;7.338;2023-08-12T07:29:28;20.60;99.90
6879;DHT22;3478;51.462;7.338;2023-08-12T07:34:30;20.60;99.90
6879;DHT22;3478;51.462;7.338;2023-08-12T07:39:32;20.60;99.90
6879;DHT22;3478;51.462;7.338;2023-08-12T07:44:35;20.50;99.90
6879;DHT22;3478;51.462;7.338;2023-08-12T07:49:38;20.60;99.90
6879;DHT22;3478;51.462;7.338;2023-08-12T07:54:40;20.80;99.90
6879;DHT22;3478;51.462;7.338;2023-08-12T07:59:43;20.80;99.90
6879;DHT22;3478;51.462;7.338;2023-08-12T08:04:45;21.00;99.90
6879;DHT22;3478;51.462;7.338;2023-08-12T08:09:51;21.30;99.90
6879;DHT22;3478;51.462;7.338;2023-08-12T08:14:54;21.40;99.90
6879;DHT22;3478;51.462;7.338;2023-08-12T08:19:56;21.50;99.90
6879;DHT22;3478;51.462;7.338;2023-08-12T08:24:57;21.60;99.90
6879;DHT22;3478;51.462;7.338;2023-08-12T08:30:01;21.50;99.90
6879;DHT22;3478;51.462;7.338;2023-08-12T08:35:03;21.90;99.90
6879;DHT22;3478;51.462;7.338;2023-08-12T08:40:07;22.10;99.90
6879;DHT22;3478;51.462;7.338;2023-08-12T08:45:13;22.10;99.90
6879;DHT22;3478;51.462;7.338;2023-08-12T08:50:15;22.00;99.90
6879;DHT22;3478;51.462;7.338;2023-08-12T08:55:17;21.70;99.90
6879;DHT22;3478;51.462;7.338;2023-08-12T09:00:20;21.60;99.90
6879;DHT22;3478;51.462;7.338;2023-08-12T09:05:23;21.70;99.90
6879;DHT22;3478;51.462;7.338;2023-08-12T09:10:27;21.70;99.90
6879;DHT22;3478;51.462;7.338;2023-08-12T09:15:30;21.70;99.90
6879;DHT22;3478;51.462;7.338;2023-08-12T09:20:32;21.60;99.90
6879;DHT22;3478;51.462;7.338;2023-08-12T09:25:34;21.70;99.90
6879;DHT22;3478;51.462;7.338;2023-08-12T09:30:39;21.80;99.90
6879;DHT22;3478;51.462;7.338;2023-08-12T09:35:41;21.80;99.90
6879;DHT22;3478;51.462;7.338;2023-08-12T09:40:46;21.80;99.90
6879;DHT22;3478;51.462;7.338;2023-08-12T09:45:50;22.00;99.90
6879;DHT22;3478;51.462;7.338;2023-08-12T09:50:52;22.10;99.90
6879;DHT22;3478;51.462;7.338;2023-08-12T09:55:55;22.10;99.90
6879;DHT22;3478;51.462;7.338;2023-08-12T10:01:00;22.20;99.90
6879;DHT22;3478;51.462;7.338;2023-08-12T10:06:03;22.00;99.90
6879;DHT22;3478;51.462;7.338;2023-08-12T10:11:06;22.00;99.90
6879;DHT22;3478;51.462;7.338;2023-08-12T10:16:10;22.40;99.90
6879;DHT22;3478;51.462;7.338;2023-08-12T10:21:13;22.30;99.90
6879;DHT22;3478;51.462;7.338;2023-08-12T10:26:16;22.10;99.90
6879;DHT22;3478;51.462;7.338;2023-08-12T10:31:20;22.20;99.90
6879;DHT22;3478;51.462;7.338;2023-08-12T10:36:22;22.20;99.90
6879;DHT22;3478;51.462;7.338;2023-08-12T10:41:24;22.80;99.90
6879;DHT22;3478;51.462;7.338;2023-08-12T10:46:31;22.90;99.90
6879;DHT22;3478;51.462;7.338;2023-08-12T10:51:41;23.00;99.90
6879;DHT22;3478;51.462;7.338;2023-08-12T10:57:08;22.90;99.90
6879;DHT22;3478;51.462;7.338;2023-08-12T11:02:16;23.20;99.90
6879;DHT22;3478;51.462;7.338;2023-08-12T11:07:21;23.70;99.90
6879;DHT22;3478;51.462;7.338;2023-08-12T11:12:30;24.50;99.90
6879;DHT22;3478;51.462;7.338;2023-08-12T11:17:35;24.70;99.90
6879;DHT22;3478;51.462;7.338;2023-08-12T11:22:38;23.80;99.90
6879;DHT22;3478;51.462;7.338;2023-08-12T11:27:42;23.30;99.90
6879;DHT22;3478;51.462;7.338;2023-08-12T11:32:46;23.10;99.90
6879;DHT22;3478;51.462;7.338;2023-08-12T11:37:50;22.60;99.90
6879;DHT22;3478;51.462;7.338;2023-08-12T11:42:54;22.40;99.90
6879;DHT22;3478;51.462;7.338;2023-08-12T11:47:58;22.30;99.90
6879;DHT22;3478;51.462;7.338;2023-08-12T11:52:59;21.90;99.90
6879;DHT22;3478;51.462;7.338;2023-08-12T11:58:01;21.90;99.90
6879;DHT22;3478;51.462;7.338;2023-08-12T12:03:06;21.70;99.90
6879;DHT22;3478;51.462;7.338;2023-08-12T12:08:08;21.80;99.90
6879;DHT22;3478;51.462;7.338;2023-08-12T12:13:10;21.90;99.90
6879;DHT22;3478;51.462;7.338;2023-08-12T12:18:14;22.00;99.90
6879;DHT22;3478;51.462;7.338;2023-08-12T12:23:17;22.30;99.90
6879;DHT22;3478;51.462;7.338;2023-08-12T12:28:19;22.60;99.90
6879;DHT22;3478;51.462;7.338;2023-08-12T12:33:22;23.20;99.90
6879;DHT22;3478;51.462;7.338;2023-08-12T12:38:24;24.00;99.90
6879;DHT22;3478;51.462;7.338;2023-08-12T12:43:26;25.20;99.90
6879;DHT22;3478;51.462;7.338;2023-08-12T12:48:29;26.40;99.90
6879;DHT22;3478;51.462;7.338;2023-08-12T12:53:31;26.30;99.90
6879;DHT22;3478;51.462;7.338;2023-08-12T12:58:34;25.50;99.90
6879;DHT22;3478;51.462;7.338;2023-08-12T13:03:37;25.60;99.90
6879;DHT22;3478;51.462;7.338;2023-08-12T13:08:39;24.50;99.90
6879;DHT22;3478;51.462;7.338;2023-08-12T13:13:41;23.80;99.90
6879;DHT22;3478;51.462;7.338;2023-08-12T13:18:44;23.10;99.90
6879;DHT22;3478;51.462;7.338;2023-08-12T13:23:46;22.30;99.90
6879;DHT22;3478;51.462;7.338;2023-08-12T13:28:48;22.00;99.90
6879;DHT22;3478;51.462;7.338;2023-08-12T13:33:51;21.80;99.90
6879;DHT22;3478;51.462;7.338;2023-08-12T13:38:53;21.60;99.90
6879;DHT22;3478;51.462;7.338;2023-08-12T13:43:55;21.50;99.90
6879;DHT22;3478;51.462;7.338;2023-08-12T13:48:58;21.50;99.90
6879;DHT22;3478;51.462;7.338;2023-08-12T13:54:00;21.40;99.90
6879;DHT22;3478;51.462;7.338;2023-08-12T13:59:02;21.70;99.90
6879;DHT22;3478;51.462;7.338;2023-08-12T14:04:05;21.90;99.90
6879;DHT22;3478;51.462;7.338;2023-08-12T14:09:07;22.00;99.90
6879;DHT22;3478;51.462;7.338;2023-08-12T14:14:09;22.10;99.90
6879;DHT22;3478;51.462;7.338;2023-08-12T14:19:12;21.80;99.90
6879;DHT22;3478;51.462;7.338;2023-08-12T14:24:17;21.70;99.90
6879;DHT22;3478;51.462;7.338;2023-08-12T14:29:18;21.80;99.90
6879;DHT22;3478;51.462;7.338;2023-08-12T14:34:22;21.90;99.90
6879;DHT22;3478;51.462;7.338;2023-08-12T14:39:24;22.00;99.90
6879;DHT22;3478;51.462;7.338;2023-08-12T14:44:25;21.80;99.90
6879;DHT22;3478;51.462;7.338;2023-08-12T14:49:29;21.80;99.90
6879;DHT22;3478;51.462;7.338;2023-08-12T14:54:31;22.30;99.90
6879;DHT22;3478;51.462;7.338;2023-08-12T14:59:32;22.60;99.90
6879;DHT22;3478;51.462;7.338;2023-08-12T15:04:36;22.90;99.90
6879;DHT22;3478;51.462;7.338;2023-08-12T15:09:37;23.30;99.90
6879;DHT22;3478;51.462;7.338;2023-08-12T15:14:39;25.00;99.90
6879;DHT22;3478;51.462;7.338;2023-08-12T15:19:43;26.30;99.90
6879;DHT22;3478;51.462;7.338;2023-08-12T15:24:45;27.20;99.90
6879;DHT22;3478;51.462;7.338;2023-08-12T15:29:47;27.60;99.90
6879;DHT22;3478;51.462;7.338;2023-08-12T15:34:50;26.20;99.90
6879;DHT22;3478;51.462;7.338;2023-08-12T15:39:51;25.10;99.90
6879;DHT22;3478;51.462;7.338;2023-08-12T15:44:53;23.90;99.90
6879;DHT22;3478;51.462;7.338;2023-08-12T15:49:56;23.80;99.90
6879;DHT22;3478;51.462;7.338;2023-08-12T15:54:58;23.40;99.90
6879;DHT22;3478;51.462;7.338;2023-08-12T16:00:00;23.50;99.90
6879;DHT22;3478;51.462;7.338;2023-08-12T16:05:07;25.80;99.90
6879;DHT22;3478;51.462;7.338;2023-08-12T16:10:09;27.30;99.90
6879;DHT22;3478;51.462;7.338;2023-08-12T16:15:11;28.00;99.90
6879;DHT22;3478;51.462;7.338;2023-08-12T16:20:14;26.70;99.90
6879;DHT22;3478;51.462;7.338;2023-08-12T16:25:16;25.60;99.90
6879;DHT22;3478;51.462;7.338;2023-08-12T16:30:18;26.90;99.90
6879;DHT22;3478;51.462;7.338;2023-08-12T16:35:22;26.90;99.90
6879;DHT22;3478;51.462;7.338;2023-08-12T16:40:24;27.50;99.90
6879;DHT22;3478;51.462;7.338;2023-08-12T16:45:28;26.70;99.90
6879;DHT22;3478;51.462;7.338;2023-08-12T16:50:31;27.30;99.90
6879;DHT22;3478;51.462;7.338;2023-08-12T16:55:33;27.90;99.90
6879;DHT22;3478;51.462;7.338;2023-08-12T17:00:35;28.30;99.90
6879;DHT22;3478;51.462;7.338;2023-08-12T17:05:38;28.50;99.90
6879;DHT22;3478;51.462;7.338;2023-08-12T17:10:40;28.40;99.90
6879;DHT22;3478;51.462;7.338;2023-08-12T17:15:42;28.50;99.90
6879;DHT22;3478;51.462;7.338;2023-08-12T17:20:45;27.70;99.90
6879;DHT22;3478;51.462;7.338;2023-08-12T17:25:47;27.70;99.90
6879;DHT22;3478;51.462;7.338;2023-08-12T17:30:49;27.50;99.90
6879;DHT22;3478;51.462;7.338;2023-08-12T17:35:53;27.30;99.90
6879;DHT22;3478;51.462;7.338;2023-08-12T17:40:56;27.20;99.90
6879;DHT22;3478;51.462;7.338;2023-08-12T17:45:58;27.50;99.90
6879;DHT22;3478;51.462;7.338;2023-08-12T17:51:01;27.30;99.90
6879;DHT22;3478;51.462;7.338;2023-08-12T17:56:03;27.60;99.90
6879;DHT22;3478;51.462;7.338;2023-08-12T18:01:05;27.20;99.90
6879;DHT22;3478;51.462;7.338;2023-08-12T18:06:08;26.80;99.90
6879;DHT22;3478;51.462;7.338;2023-08-12T18:11:10;26.50;99.90
6879;DHT22;3478;51.462;7.338;2023-08-12T18:16:13;26.20;99.90
6879;DHT22;3478;51.462;7.338;2023-08-12T18:21:17;25.90;99.90
6879;DHT22;3478;51.462;7.338;2023-08-12T18:26:19;24.60;99.90
6879;DHT22;3478;51.462;7.338;2023-08-12T18:31:21;23.60;99.90
6879;DHT22;3478;51.462;7.338;2023-08-12T18:36:24;23.00;99.90
6879;DHT22;3478;51.462;7.338;2023-08-12T18:41:26;22.50;99.90
6879;DHT22;3478;51.462;7.338;2023-08-12T18:46:28;22.20;99.90
6879;DHT22;3478;51.462;7.338;2023-08-12T18:51:31;21.80;99.90
6879;DHT22;3478;51.462;7.338;2023-08-12T18:56:33;21.60;99.90
6879;DHT22;3478;51.462;7.338;2023-08-12T19:01:35;21.40;99.90
6879;DHT22;3478;51.462;7.338;2023-08-12T19:06:38;21.40;99.90
6879;DHT22;3478;51.462;7.338;2023-08-12T19:11:40;21.20;99.90
6879;DHT22;3478;51.462;7.338;2023-08-12T19:16:42;21.10;99.90
6879;DHT22;3478;51.462;7.338;2023-08-12T19:21:45;21.00;99.90
6879;DHT22;3478;51.462;7.338;2023-08-12T19:26:48;20.90;99.90
6879;DHT22;3478;51.462;7.338;2023-08-12T19:31:50;20.70;99.90
6879;DHT22;3478;51.462;7.338;2023-08-12T19:36:53;20.60;99.90
6879;DHT22;3478;51.462;7.338;2023-08-12T19:41:55;20.50;99.90
6879;DHT22;3478;51.462;7.338;2023-08-12T19:46:56;20.40;99.90
6879;DHT22;3478;51.462;7.338;2023-08-12T19:51:59;20.30;99.90
6879;DHT22;3478;51.462;7.338;2023-08-12T19:57:01;20.20;99.90
6879;DHT22;3478;51.462;7.338;2023-08-12T20:02:03;19.90;99.90
6879;DHT22;3478;51.462;7.338;2023-08-12T20:07:06;19.80;99.90
6879;DHT22;3478;51.462;7.338;2023-08-12T20:12:08;19.60;99.90
6879;DHT22;3478;51.462;7.338;2023-08-12T20:17:10;19.40;99.90
6879;DHT22;3478;51.462;7.338;2023-08-12T20:22:13;19.30;99.90
6879;DHT22;3478;51.462;7.338;2023-08-12T20:27:15;19.20;99.90
6879;DHT22;3478;51.462;7.338;2023-08-12T20:32:17;19.00;99.90
6879;DHT22;3478;51.462;7.338;2023-08-12T20:37:20;19.00;99.90
6879;DHT22;3478;51.462;7.338;2023-08-12T20:42:23;18.90;99.90
6879;DHT22;3478;51.462;7.338;2023-08-12T20:47:25;18.90;99.90
6879;DHT22;3478;51.462;7.338;2023-08-12T20:52:30;18.90;99.90
6879;DHT22;3478;51.462;7.338;2023-08-12T20:57:32;18.80;99.90
6879;DHT22;3478;51.462;7.338;2023-08-12T21:02:34;18.80;99.90
6879;DHT22;3478;51.462;7.338;2023-08-12T21:07:37;18.70;99.90
6879;DHT22;3478;51.462;7.338;2023-08-12T21:12:39;18.70;99.90
6879;DHT22;3478;51.462;7.338;2023-08-12T21:17:41;18.60;99.90
6879;DHT22;3478;51.462;7.338;2023-08-12T21:22:44;18.50;99.90
6879;DHT22;3478;51.462;7.338;2023-08-12T21:27:48;18.50;99.90
6879;DHT22;3478;51.462;7.338;2023-08-12T21:32:49;18.40;99.90
6879;DHT22;3478;51.462;7.338;2023-08-12T21:37:53;18.40;99.90
6879;DHT22;3478;51.462;7.338;2023-08-12T21:42:54;18.30;99.90
6879;DHT22;3478;51.462;7.338;2023-08-12T21:47:56;18.30;99.90
6879;DHT22;3478;51.462;7.338;2023-08-12T21:52:59;18.30;99.90
6879;DHT22;3478;51.462;7.338;2023-08-12T21:58:01;18.20;99.90
6879;DHT22;3478;51.462;7.338;2023-08-12T22:03:03;18.10;99.90
6879;DHT22;3478;51.462;7.338;2023-08-12T22:08:07;18.10;99.90
6879;DHT22;3478;51.462;7.338;2023-08-12T22:13:09;18.00;99.90
6879;DHT22;3478;51.462;7.338;2023-08-12T22:18:10;18.00;99.90
6879;DHT22;3478;51.462;7.338;2023-08-12T22:23:14;17.90;99.90
6879;DHT22;3478;51.462;7.338;2023-08-12T22:28:15;17.90;99.90
6879;DHT22;3478;51.462;7.338;2023-08-12T22:33:19;17.80;99.90
6879;DHT22;3478;51.462;7.338;2023-08-12T22:38:22;17.80;99.90
6879;DHT22;3478;51.462;7.338;2023-08-12T22:43:24;17.80;99.90
6879;DHT22;3478;51.462;7.338;2023-08-12T22:48:26;17.70;99.90
6879;DHT22;3478;51.462;7.338;2023-08-12T22:53:29;17.70;99.90
6879;DHT22;3478;51.462;7.338;2023-08-12T22:58:31;17.70;99.90
6879;DHT22;3478;51.462;7.338;2023-08-12T23:03:33;17.70;99.90
6879;DHT22;3478;51.462;7.338;2023-08-12T23:08:36;17.60;99.90
6879;DHT22;3478;51.462;7.338;2023-08-12T23:13:38;17.60;99.90
6879;DHT22;3478;51.462;7.338;2023-08-12T23:18:39;17.50;99.90
6879;DHT22;3478;51.462;7.338;2023-08-12T23:23:43;17.60;99.90
6879;DHT22;3478;51.462;7.338;2023-08-12T23:28:44;17.50;99.90
6879;DHT22;3478;51.462;7.338;2023-08-12T23:33:46;17.50;99.90
6879;DHT22;3478;51.462;7.338;2023-08-12T23:38:49;17.50;99.90
6879;DHT22;3478;51.462;7.338;2023-08-12T23:43:52;17.40;99.90
6879;DHT22;3478;51.462;7.338;2023-08-12T23:48:54;17.40;99.90
6879;DHT22;3478;51.462;7.338;2023-08-12T23:53:58;17.40;99.90
6879;DHT22;3478;51.462;7.338;2023-08-12T23:58:59;17.50;99.90
